sensor_id;sensor_type;location;lat;lon;timestamp;P1;durP1;ratioP1;P2;durP2;ratioP2
41685;SDS011;27370;42.764;23.432;2024-02-28T00:01:50;15.35;;;8.73;;
41685;SDS011;27370;42.764;23.432;2024-02-28T00:04:16;18.70;;;10.90;;
41685;SDS011;27370;42.764;23.432;2024-02-28T00:06:44;18.58;;;10.13;;
41685;SDS011;27370;42.764;23.432;2024-02-28T00:09:11;18.23;;;10.65;;
41685;SDS011;27370;42.764;23.432;2024-02-28T00:11:41;19.92;;;10.45;;
41685;SDS011;27370;42.764;23.432;2024-02-28T00:14:11;22.83;;;10.13;;
41685;SDS011;27370;42.764;23.432;2024-02-28T00:16:40;18.35;;;9.52;;
41685;SDS011;27370;42.764;23.432;2024-02-28T00:19:06;20.02;;;10.60;;
41685;SDS011;27370;42.764;23.432;2024-02-28T00:21:32;21.58;;;11.68;;
41685;SDS011;27370;42.764;23.432;2024-02-28T00:23:57;18.92;;;10.13;;
41685;SDS011;27370;42.764;23.432;2024-02-28T00:26:23;18.50;;;10.43;;
41685;SDS011;27370;42.764;23.432;2024-02-28T00:28:48;15.43;;;9.82;;
41685;SDS011;27370;42.764;23.432;2024-02-28T00:31:13;17.67;;;10.32;;
41685;SDS011;27370;42.764;23.432;2024-02-28T00:33:39;20.88;;;10.40;;
41685;SDS011;27370;42.764;23.432;2024-02-28T00:36:04;19.30;;;10.75;;
41685;SDS011;27370;42.764;23.432;2024-02-28T00:38:30;17.08;;;9.35;;
41685;SDS011;27370;42.764;23.432;2024-02-28T00:40:55;16.55;;;10.02;;
41685;SDS011;27370;42.764;23.432;2024-02-28T00:43:21;21.65;;;9.98;;
41685;SDS011;27370;42.764;23.432;2024-02-28T00:45:46;26.38;;;10.43;;
41685;SDS011;27370;42.764;23.432;2024-02-28T00:48:12;21.85;;;10.30;;
41685;SDS011;27370;42.764;23.432;2024-02-28T00:50:37;20.45;;;10.25;;
41685;SDS011;27370;42.764;23.432;2024-02-28T00:53:03;19.02;;;10.82;;
41685;SDS011;27370;42.764;23.432;2024-02-28T00:55:28;20.05;;;10.68;;
41685;SDS011;27370;42.764;23.432;2024-02-28T00:57:54;19.20;;;11.35;;
41685;SDS011;27370;42.764;23.432;2024-02-28T01:00:19;23.08;;;10.82;;
41685;SDS011;27370;42.764;23.432;2024-02-28T01:02:45;19.13;;;9.63;;
41685;SDS011;27370;42.764;23.432;2024-02-28T01:05:10;19.35;;;10.32;;
41685;SDS011;27370;42.764;23.432;2024-02-28T01:07:36;17.30;;;10.35;;
41685;SDS011;27370;42.764;23.432;2024-02-28T01:10:02;23.80;;;12.18;;
41685;SDS011;27370;42.764;23.432;2024-02-28T01:12:28;23.60;;;12.30;;
41685;SDS011;27370;42.764;23.432;2024-02-28T01:14:53;21.00;;;12.15;;
41685;SDS011;27370;42.764;23.432;2024-02-28T01:17:19;28.10;;;12.43;;
41685;SDS011;27370;42.764;23.432;2024-02-28T01:19:44;27.52;;;14.70;;
41685;SDS011;27370;42.764;23.432;2024-02-28T01:22:10;24.48;;;13.60;;
41685;SDS011;27370;42.764;23.432;2024-02-28T01:24:35;28.45;;;14.18;;
41685;SDS011;27370;42.764;23.432;2024-02-28T01:27:01;24.25;;;14.40;;
41685;SDS011;27370;42.764;23.432;2024-02-28T01:29:28;26.38;;;14.10;;
41685;SDS011;27370;42.764;23.432;2024-02-28T01:31:53;28.85;;;14.85;;
41685;SDS011;27370;42.764;23.432;2024-02-28T01:34:19;25.73;;;14.05;;
41685;SDS011;27370;42.764;23.432;2024-02-28T01:36:44;20.55;;;13.68;;
41685;SDS011;27370;42.764;23.432;2024-02-28T01:39:10;25.77;;;14.95;;
41685;SDS011;27370;42.764;23.432;2024-02-28T01:41:35;25.02;;;14.35;;
41685;SDS011;27370;42.764;23.432;2024-02-28T01:44:00;24.27;;;13.85;;
41685;SDS011;27370;42.764;23.432;2024-02-28T01:46:27;26.00;;;13.77;;
41685;SDS011;27370;42.764;23.432;2024-02-28T01:48:53;23.52;;;12.30;;
41685;SDS011;27370;42.764;23.432;2024-02-28T01:51:19;21.20;;;12.18;;
41685;SDS011;27370;42.764;23.432;2024-02-28T01:53:46;25.23;;;13.60;;
41685;SDS011;27370;42.764;23.432;2024-02-28T01:56:13;26.40;;;12.93;;
41685;SDS011;27370;42.764;23.432;2024-02-28T01:58:40;29.60;;;14.40;;
41685;SDS011;27370;42.764;23.432;2024-02-28T02:01:05;27.83;;;14.95;;
41685;SDS011;27370;42.764;23.432;2024-02-28T02:03:32;30.15;;;14.10;;
41685;SDS011;27370;42.764;23.432;2024-02-28T02:06:00;30.23;;;13.98;;
41685;SDS011;27370;42.764;23.432;2024-02-28T02:08:27;24.85;;;12.65;;
41685;SDS011;27370;42.764;23.432;2024-02-28T02:10:53;31.92;;;14.52;;
41685;SDS011;27370;42.764;23.432;2024-02-28T02:13:18;27.75;;;14.13;;
41685;SDS011;27370;42.764;23.432;2024-02-28T02:15:43;34.80;;;16.77;;
41685;SDS011;27370;42.764;23.432;2024-02-28T02:18:09;30.98;;;14.98;;
41685;SDS011;27370;42.764;23.432;2024-02-28T02:20:35;33.72;;;16.02;;
41685;SDS011;27370;42.764;23.432;2024-02-28T02:23:02;28.95;;;14.82;;
41685;SDS011;27370;42.764;23.432;2024-02-28T02:25:27;31.83;;;15.40;;
41685;SDS011;27370;42.764;23.432;2024-02-28T02:27:53;38.53;;;15.38;;
41685;SDS011;27370;42.764;23.432;2024-02-28T02:30:18;37.30;;;17.08;;
41685;SDS011;27370;42.764;23.432;2024-02-28T02:32:43;34.85;;;15.07;;
41685;SDS011;27370;42.764;23.432;2024-02-28T02:35:09;37.10;;;14.45;;
41685;SDS011;27370;42.764;23.432;2024-02-28T02:37:34;25.00;;;15.55;;
41685;SDS011;27370;42.764;23.432;2024-02-28T02:40:00;27.90;;;14.48;;
41685;SDS011;27370;42.764;23.432;2024-02-28T02:42:26;30.45;;;15.88;;
41685;SDS011;27370;42.764;23.432;2024-02-28T02:44:51;30.05;;;14.27;;
41685;SDS011;27370;42.764;23.432;2024-02-28T02:47:16;25.48;;;14.80;;
41685;SDS011;27370;42.764;23.432;2024-02-28T02:49:42;28.13;;;13.68;;
41685;SDS011;27370;42.764;23.432;2024-02-28T02:52:07;26.88;;;12.90;;
41685;SDS011;27370;42.764;23.432;2024-02-28T02:54:33;28.85;;;13.25;;
41685;SDS011;27370;42.764;23.432;2024-02-28T02:56:58;39.60;;;18.27;;
41685;SDS011;27370;42.764;23.432;2024-02-28T02:59:23;36.53;;;16.08;;
41685;SDS011;27370;42.764;23.432;2024-02-28T03:01:49;39.58;;;18.38;;
41685;SDS011;27370;42.764;23.432;2024-02-28T03:04:15;33.30;;;15.70;;
41685;SDS011;27370;42.764;23.432;2024-02-28T03:06:41;30.17;;;15.38;;
41685;SDS011;27370;42.764;23.432;2024-02-28T03:09:06;26.70;;;13.95;;
41685;SDS011;27370;42.764;23.432;2024-02-28T03:11:33;29.90;;;15.82;;
41685;SDS011;27370;42.764;23.432;2024-02-28T03:14:00;31.92;;;16.85;;
41685;SDS011;27370;42.764;23.432;2024-02-28T03:16:25;30.48;;;16.55;;
41685;SDS011;27370;42.764;23.432;2024-02-28T03:18:51;32.58;;;16.92;;
41685;SDS011;27370;42.764;23.432;2024-02-28T03:21:16;30.00;;;14.77;;
41685;SDS011;27370;42.764;23.432;2024-02-28T03:23:42;33.70;;;16.80;;
41685;SDS011;27370;42.764;23.432;2024-02-28T03:26:08;35.15;;;16.50;;
41685;SDS011;27370;42.764;23.432;2024-02-28T03:28:33;31.95;;;16.05;;
41685;SDS011;27370;42.764;23.432;2024-02-28T03:30:59;36.83;;;16.60;;
41685;SDS011;27370;42.764;23.432;2024-02-28T03:33:24;33.15;;;15.80;;
41685;SDS011;27370;42.764;23.432;2024-02-28T03:35:50;34.10;;;15.98;;
41685;SDS011;27370;42.764;23.432;2024-02-28T03:38:15;32.67;;;15.75;;
41685;SDS011;27370;42.764;23.432;2024-02-28T03:40:41;28.67;;;15.98;;
41685;SDS011;27370;42.764;23.432;2024-02-28T03:43:06;33.80;;;16.35;;
41685;SDS011;27370;42.764;23.432;2024-02-28T03:45:37;31.35;;;15.65;;
41685;SDS011;27370;42.764;23.432;2024-02-28T03:48:03;30.35;;;16.55;;
41685;SDS011;27370;42.764;23.432;2024-02-28T03:50:29;29.70;;;15.60;;
41685;SDS011;27370;42.764;23.432;2024-02-28T03:52:55;34.03;;;17.38;;
41685;SDS011;27370;42.764;23.432;2024-02-28T03:55:20;33.50;;;15.63;;
41685;SDS011;27370;42.764;23.432;2024-02-28T03:57:48;38.60;;;17.83;;
41685;SDS011;27370;42.764;23.432;2024-02-28T04:00:17;34.17;;;16.48;;
41685;SDS011;27370;42.764;23.432;2024-02-28T04:02:42;37.58;;;15.63;;
41685;SDS011;27370;42.764;23.432;2024-02-28T04:05:08;34.33;;;16.77;;
41685;SDS011;27370;42.764;23.432;2024-02-28T04:07:33;26.10;;;15.10;;
41685;SDS011;27370;42.764;23.432;2024-02-28T04:09:59;29.52;;;15.77;;
41685;SDS011;27370;42.764;23.432;2024-02-28T04:12:24;37.65;;;19.40;;
41685;SDS011;27370;42.764;23.432;2024-02-28T04:14:50;32.95;;;18.33;;
41685;SDS011;27370;42.764;23.432;2024-02-28T04:17:15;43.15;;;20.85;;
41685;SDS011;27370;42.764;23.432;2024-02-28T04:19:40;33.53;;;18.67;;
41685;SDS011;27370;42.764;23.432;2024-02-28T04:22:06;46.90;;;23.73;;
41685;SDS011;27370;42.764;23.432;2024-02-28T04:24:31;40.65;;;22.98;;
41685;SDS011;27370;42.764;23.432;2024-02-28T04:26:58;41.15;;;21.35;;
41685;SDS011;27370;42.764;23.432;2024-02-28T04:29:24;39.92;;;21.17;;
41685;SDS011;27370;42.764;23.432;2024-02-28T04:31:50;39.42;;;22.05;;
41685;SDS011;27370;42.764;23.432;2024-02-28T04:34:16;35.83;;;19.25;;
41685;SDS011;27370;42.764;23.432;2024-02-28T04:36:41;37.88;;;21.10;;
41685;SDS011;27370;42.764;23.432;2024-02-28T04:39:06;43.10;;;21.83;;
41685;SDS011;27370;42.764;23.432;2024-02-28T04:41:33;38.03;;;20.33;;
41685;SDS011;27370;42.764;23.432;2024-02-28T04:43:59;36.15;;;18.83;;
41685;SDS011;27370;42.764;23.432;2024-02-28T04:46:24;35.80;;;17.80;;
41685;SDS011;27370;42.764;23.432;2024-02-28T04:48:50;41.25;;;20.08;;
41685;SDS011;27370;42.764;23.432;2024-02-28T04:51:16;40.53;;;19.08;;
41685;SDS011;27370;42.764;23.432;2024-02-28T04:53:42;39.85;;;20.48;;
41685;SDS011;27370;42.764;23.432;2024-02-28T04:56:08;35.15;;;20.30;;
41685;SDS011;27370;42.764;23.432;2024-02-28T04:58:35;40.67;;;19.40;;
41685;SDS011;27370;42.764;23.432;2024-02-28T05:01:01;38.72;;;20.70;;
41685;SDS011;27370;42.764;23.432;2024-02-28T05:03:26;39.13;;;21.52;;
41685;SDS011;27370;42.764;23.432;2024-02-28T05:05:52;41.05;;;23.17;;
41685;SDS011;27370;42.764;23.432;2024-02-28T05:08:19;41.55;;;19.77;;
41685;SDS011;27370;42.764;23.432;2024-02-28T05:10:45;40.22;;;21.67;;
41685;SDS011;27370;42.764;23.432;2024-02-28T05:13:10;35.67;;;20.05;;
41685;SDS011;27370;42.764;23.432;2024-02-28T05:15:35;37.05;;;18.80;;
41685;SDS011;27370;42.764;23.432;2024-02-28T05:18:01;44.88;;;20.65;;
41685;SDS011;27370;42.764;23.432;2024-02-28T05:20:26;39.50;;;21.58;;
41685;SDS011;27370;42.764;23.432;2024-02-28T05:22:52;40.78;;;21.45;;
41685;SDS011;27370;42.764;23.432;2024-02-28T05:25:17;37.72;;;19.40;;
41685;SDS011;27370;42.764;23.432;2024-02-28T05:27:43;36.10;;;20.23;;
41685;SDS011;27370;42.764;23.432;2024-02-28T05:30:08;47.05;;;22.17;;
41685;SDS011;27370;42.764;23.432;2024-02-28T05:32:34;38.33;;;19.02;;
41685;SDS011;27370;42.764;23.432;2024-02-28T05:35:00;36.78;;;19.13;;
41685;SDS011;27370;42.764;23.432;2024-02-28T05:37:26;47.17;;;23.70;;
41685;SDS011;27370;42.764;23.432;2024-02-28T05:39:51;37.90;;;19.58;;
41685;SDS011;27370;42.764;23.432;2024-02-28T05:42:17;35.38;;;18.08;;
41685;SDS011;27370;42.764;23.432;2024-02-28T05:44:47;40.75;;;18.90;;
41685;SDS011;27370;42.764;23.432;2024-02-28T05:47:13;41.00;;;18.95;;
41685;SDS011;27370;42.764;23.432;2024-02-28T05:49:39;32.60;;;17.67;;
41685;SDS011;27370;42.764;23.432;2024-02-28T05:52:04;35.30;;;17.63;;
41685;SDS011;27370;42.764;23.432;2024-02-28T05:54:30;36.45;;;19.95;;
41685;SDS011;27370;42.764;23.432;2024-02-28T05:56:56;35.00;;;18.98;;
41685;SDS011;27370;42.764;23.432;2024-02-28T05:59:21;41.38;;;21.05;;
41685;SDS011;27370;42.764;23.432;2024-02-28T06:01:47;35.08;;;19.23;;
41685;SDS011;27370;42.764;23.432;2024-02-28T06:04:12;56.00;;;27.17;;
41685;SDS011;27370;42.764;23.432;2024-02-28T06:06:38;54.35;;;24.95;;
41685;SDS011;27370;42.764;23.432;2024-02-28T06:09:03;45.58;;;19.55;;
41685;SDS011;27370;42.764;23.432;2024-02-28T06:11:29;38.45;;;20.58;;
41685;SDS011;27370;42.764;23.432;2024-02-28T06:13:54;37.45;;;20.35;;
41685;SDS011;27370;42.764;23.432;2024-02-28T06:16:20;32.75;;;19.08;;
41685;SDS011;27370;42.764;23.432;2024-02-28T06:18:45;34.92;;;20.23;;
41685;SDS011;27370;42.764;23.432;2024-02-28T06:21:12;45.25;;;21.73;;
41685;SDS011;27370;42.764;23.432;2024-02-28T06:23:38;46.15;;;22.92;;
41685;SDS011;27370;42.764;23.432;2024-02-28T06:26:04;45.05;;;22.33;;
41685;SDS011;27370;42.764;23.432;2024-02-28T06:28:29;40.67;;;19.70;;
41685;SDS011;27370;42.764;23.432;2024-02-28T06:30:55;39.45;;;21.08;;
41685;SDS011;27370;42.764;23.432;2024-02-28T06:33:20;70.18;;;35.58;;
41685;SDS011;27370;42.764;23.432;2024-02-28T06:35:46;80.95;;;41.80;;
41685;SDS011;27370;42.764;23.432;2024-02-28T06:38:11;58.22;;;31.27;;
41685;SDS011;27370;42.764;23.432;2024-02-28T06:40:37;49.22;;;27.15;;
41685;SDS011;27370;42.764;23.432;2024-02-28T06:43:03;61.03;;;30.55;;
41685;SDS011;27370;42.764;23.432;2024-02-28T06:45:30;56.35;;;26.83;;
41685;SDS011;27370;42.764;23.432;2024-02-28T06:47:55;47.28;;;22.92;;
41685;SDS011;27370;42.764;23.432;2024-02-28T06:50:20;67.47;;;32.45;;
41685;SDS011;27370;42.764;23.432;2024-02-28T06:52:46;65.13;;;33.88;;
41685;SDS011;27370;42.764;23.432;2024-02-28T06:55:11;36.83;;;19.48;;
41685;SDS011;27370;42.764;23.432;2024-02-28T06:57:40;34.03;;;19.23;;
41685;SDS011;27370;42.764;23.432;2024-02-28T07:00:06;33.58;;;18.00;;
41685;SDS011;27370;42.764;23.432;2024-02-28T07:02:34;25.17;;;14.38;;
41685;SDS011;27370;42.764;23.432;2024-02-28T07:05:00;30.95;;;14.40;;
41685;SDS011;27370;42.764;23.432;2024-02-28T07:07:26;26.52;;;14.30;;
41685;SDS011;27370;42.764;23.432;2024-02-28T07:09:51;27.45;;;14.32;;
41685;SDS011;27370;42.764;23.432;2024-02-28T07:12:17;26.00;;;13.95;;
41685;SDS011;27370;42.764;23.432;2024-02-28T07:14:42;27.13;;;12.23;;
41685;SDS011;27370;42.764;23.432;2024-02-28T07:17:07;25.48;;;14.73;;
41685;SDS011;27370;42.764;23.432;2024-02-28T07:19:33;27.15;;;13.75;;
41685;SDS011;27370;42.764;23.432;2024-02-28T07:21:59;35.88;;;13.15;;
41685;SDS011;27370;42.764;23.432;2024-02-28T07:24:24;25.00;;;12.93;;
41685;SDS011;27370;42.764;23.432;2024-02-28T07:26:50;13.30;;;8.82;;
41685;SDS011;27370;42.764;23.432;2024-02-28T07:29:16;18.48;;;9.07;;
41685;SDS011;27370;42.764;23.432;2024-02-28T07:31:41;14.10;;;7.75;;
41685;SDS011;27370;42.764;23.432;2024-02-28T07:34:07;26.23;;;13.15;;
41685;SDS011;27370;42.764;23.432;2024-02-28T07:36:33;19.50;;;10.57;;
41685;SDS011;27370;42.764;23.432;2024-02-28T07:38:59;19.55;;;10.10;;
41685;SDS011;27370;42.764;23.432;2024-02-28T07:41:24;21.58;;;10.60;;
41685;SDS011;27370;42.764;23.432;2024-02-28T07:43:50;19.42;;;11.82;;
41685;SDS011;27370;42.764;23.432;2024-02-28T07:46:15;28.13;;;13.48;;
41685;SDS011;27370;42.764;23.432;2024-02-28T07:48:41;34.30;;;15.38;;
41685;SDS011;27370;42.764;23.432;2024-02-28T07:51:07;27.38;;;13.15;;
41685;SDS011;27370;42.764;23.432;2024-02-28T07:53:33;30.98;;;13.43;;
41685;SDS011;27370;42.764;23.432;2024-02-28T07:55:58;24.08;;;13.40;;
41685;SDS011;27370;42.764;23.432;2024-02-28T07:58:24;27.48;;;14.05;;
41685;SDS011;27370;42.764;23.432;2024-02-28T08:00:50;23.05;;;10.88;;
41685;SDS011;27370;42.764;23.432;2024-02-28T08:03:17;25.55;;;14.02;;
41685;SDS011;27370;42.764;23.432;2024-02-28T08:05:43;20.08;;;10.98;;
41685;SDS011;27370;42.764;23.432;2024-02-28T08:08:09;18.52;;;10.77;;
41685;SDS011;27370;42.764;23.432;2024-02-28T08:10:36;29.63;;;13.27;;
41685;SDS011;27370;42.764;23.432;2024-02-28T08:13:02;27.45;;;13.85;;
41685;SDS011;27370;42.764;23.432;2024-02-28T08:15:28;23.33;;;13.45;;
41685;SDS011;27370;42.764;23.432;2024-02-28T08:17:54;23.00;;;11.75;;
41685;SDS011;27370;42.764;23.432;2024-02-28T08:20:19;17.52;;;11.13;;
41685;SDS011;27370;42.764;23.432;2024-02-28T08:22:45;20.10;;;11.73;;
41685;SDS011;27370;42.764;23.432;2024-02-28T08:25:11;19.58;;;12.38;;
41685;SDS011;27370;42.764;23.432;2024-02-28T08:27:37;24.42;;;13.82;;
41685;SDS011;27370;42.764;23.432;2024-02-28T08:30:04;25.05;;;12.80;;
41685;SDS011;27370;42.764;23.432;2024-02-28T08:32:31;23.73;;;13.90;;
41685;SDS011;27370;42.764;23.432;2024-02-28T08:34:57;28.45;;;16.00;;
41685;SDS011;27370;42.764;23.432;2024-02-28T08:37:23;23.65;;;11.65;;
41685;SDS011;27370;42.764;23.432;2024-02-28T08:39:49;25.75;;;13.45;;
41685;SDS011;27370;42.764;23.432;2024-02-28T08:42:16;32.10;;;13.50;;
41685;SDS011;27370;42.764;23.432;2024-02-28T08:44:41;28.58;;;13.40;;
41685;SDS011;27370;42.764;23.432;2024-02-28T08:47:07;26.42;;;11.18;;
41685;SDS011;27370;42.764;23.432;2024-02-28T08:49:38;26.70;;;10.73;;
41685;SDS011;27370;42.764;23.432;2024-02-28T08:52:04;23.70;;;14.13;;
41685;SDS011;27370;42.764;23.432;2024-02-28T08:54:30;26.65;;;13.75;;
41685;SDS011;27370;42.764;23.432;2024-02-28T08:56:55;20.65;;;10.90;;
41685;SDS011;27370;42.764;23.432;2024-02-28T08:59:21;20.98;;;11.75;;
41685;SDS011;27370;42.764;23.432;2024-02-28T09:01:47;20.65;;;11.20;;
41685;SDS011;27370;42.764;23.432;2024-02-28T09:04:13;31.33;;;13.60;;
41685;SDS011;27370;42.764;23.432;2024-02-28T09:06:39;26.25;;;12.80;;
41685;SDS011;27370;42.764;23.432;2024-02-28T09:09:04;17.40;;;10.68;;
41685;SDS011;27370;42.764;23.432;2024-02-28T09:11:30;22.17;;;12.05;;
41685;SDS011;27370;42.764;23.432;2024-02-28T09:13:55;21.80;;;10.07;;
41685;SDS011;27370;42.764;23.432;2024-02-28T09:16:22;21.80;;;11.13;;
41685;SDS011;27370;42.764;23.432;2024-02-28T09:18:47;25.50;;;11.85;;
41685;SDS011;27370;42.764;23.432;2024-02-28T09:21:13;20.70;;;10.77;;
41685;SDS011;27370;42.764;23.432;2024-02-28T09:23:40;26.30;;;12.18;;
41685;SDS011;27370;42.764;23.432;2024-02-28T09:26:06;18.13;;;9.80;;
41685;SDS011;27370;42.764;23.432;2024-02-28T09:28:31;18.40;;;10.90;;
41685;SDS011;27370;42.764;23.432;2024-02-28T09:30:57;18.10;;;10.70;;
41685;SDS011;27370;42.764;23.432;2024-02-28T09:33:23;21.02;;;11.35;;
41685;SDS011;27370;42.764;23.432;2024-02-28T09:35:48;16.35;;;9.57;;
41685;SDS011;27370;42.764;23.432;2024-02-28T09:38:15;15.77;;;8.57;;
41685;SDS011;27370;42.764;23.432;2024-02-28T09:40:41;20.95;;;10.10;;
41685;SDS011;27370;42.764;23.432;2024-02-28T09:43:11;17.58;;;9.38;;
41685;SDS011;27370;42.764;23.432;2024-02-28T09:45:41;12.50;;;8.18;;
41685;SDS011;27370;42.764;23.432;2024-02-28T09:48:07;26.10;;;10.27;;
41685;SDS011;27370;42.764;23.432;2024-02-28T09:50:32;19.33;;;8.77;;
41685;SDS011;27370;42.764;23.432;2024-02-28T09:52:58;14.93;;;8.52;;
41685;SDS011;27370;42.764;23.432;2024-02-28T09:55:24;14.43;;;7.22;;
41685;SDS011;27370;42.764;23.432;2024-02-28T09:57:50;11.10;;;6.93;;
41685;SDS011;27370;42.764;23.432;2024-02-28T10:00:17;15.40;;;9.98;;
41685;SDS011;27370;42.764;23.432;2024-02-28T10:02:45;12.52;;;7.70;;
41685;SDS011;27370;42.764;23.432;2024-02-28T10:05:12;14.45;;;7.30;;
41685;SDS011;27370;42.764;23.432;2024-02-28T10:07:39;14.32;;;7.38;;
41685;SDS011;27370;42.764;23.432;2024-02-28T10:10:05;16.40;;;7.45;;
41685;SDS011;27370;42.764;23.432;2024-02-28T10:12:33;14.07;;;8.63;;
41685;SDS011;27370;42.764;23.432;2024-02-28T10:14:59;13.93;;;8.35;;
41685;SDS011;27370;42.764;23.432;2024-02-28T10:17:25;9.75;;;6.40;;
41685;SDS011;27370;42.764;23.432;2024-02-28T10:19:51;10.35;;;7.13;;
41685;SDS011;27370;42.764;23.432;2024-02-28T10:22:17;12.10;;;8.02;;
41685;SDS011;27370;42.764;23.432;2024-02-28T10:24:43;16.08;;;7.30;;
41685;SDS011;27370;42.764;23.432;2024-02-28T10:27:08;12.15;;;7.40;;
41685;SDS011;27370;42.764;23.432;2024-02-28T10:29:35;17.33;;;7.95;;
41685;SDS011;27370;42.764;23.432;2024-02-28T10:32:00;23.60;;;11.30;;
41685;SDS011;27370;42.764;23.432;2024-02-28T10:34:28;19.73;;;10.10;;
41685;SDS011;27370;42.764;23.432;2024-02-28T10:36:54;11.73;;;8.45;;
41685;SDS011;27370;42.764;23.432;2024-02-28T10:39:19;18.70;;;8.88;;
41685;SDS011;27370;42.764;23.432;2024-02-28T10:41:48;20.20;;;8.55;;
41685;SDS011;27370;42.764;23.432;2024-02-28T10:44:15;13.52;;;7.70;;
41685;SDS011;27370;42.764;23.432;2024-02-28T10:46:41;12.93;;;7.93;;
41685;SDS011;27370;42.764;23.432;2024-02-28T10:49:08;16.00;;;7.97;;
41685;SDS011;27370;42.764;23.432;2024-02-28T10:51:34;15.23;;;7.45;;
41685;SDS011;27370;42.764;23.432;2024-02-28T10:54:10;15.25;;;7.85;;
41685;SDS011;27370;42.764;23.432;2024-02-28T10:56:37;17.17;;;8.43;;
41685;SDS011;27370;42.764;23.432;2024-02-28T10:59:05;14.55;;;8.95;;
41685;SDS011;27370;42.764;23.432;2024-02-28T11:01:31;11.95;;;6.90;;
41685;SDS011;27370;42.764;23.432;2024-02-28T11:03:57;14.98;;;8.40;;
41685;SDS011;27370;42.764;23.432;2024-02-28T11:06:22;12.00;;;7.38;;
41685;SDS011;27370;42.764;23.432;2024-02-28T11:08:48;11.30;;;7.32;;
41685;SDS011;27370;42.764;23.432;2024-02-28T11:11:18;15.20;;;7.10;;
41685;SDS011;27370;42.764;23.432;2024-02-28T11:13:52;12.27;;;5.20;;
41685;SDS011;27370;42.764;23.432;2024-02-28T11:16:25;9.77;;;5.88;;
41685;SDS011;27370;42.764;23.432;2024-02-28T11:18:54;13.20;;;7.10;;
41685;SDS011;27370;42.764;23.432;2024-02-28T11:21:22;14.63;;;8.88;;
41685;SDS011;27370;42.764;23.432;2024-02-28T11:23:51;11.18;;;5.93;;
41685;SDS011;27370;42.764;23.432;2024-02-28T11:26:17;8.00;;;5.78;;
41685;SDS011;27370;42.764;23.432;2024-02-28T11:28:43;7.93;;;5.07;;
41685;SDS011;27370;42.764;23.432;2024-02-28T11:31:09;9.80;;;5.90;;
41685;SDS011;27370;42.764;23.432;2024-02-28T11:33:37;12.35;;;5.75;;
41685;SDS011;27370;42.764;23.432;2024-02-28T11:36:03;7.85;;;4.88;;
41685;SDS011;27370;42.764;23.432;2024-02-28T11:38:29;13.05;;;5.30;;
41685;SDS011;27370;42.764;23.432;2024-02-28T11:40:54;8.75;;;4.22;;
41685;SDS011;27370;42.764;23.432;2024-02-28T11:43:23;10.95;;;4.53;;
41685;SDS011;27370;42.764;23.432;2024-02-28T11:45:49;11.60;;;5.00;;
41685;SDS011;27370;42.764;23.432;2024-02-28T11:48:14;8.63;;;5.28;;
41685;SDS011;27370;42.764;23.432;2024-02-28T11:50:40;9.38;;;4.95;;
41685;SDS011;27370;42.764;23.432;2024-02-28T11:53:06;12.35;;;5.18;;
41685;SDS011;27370;42.764;23.432;2024-02-28T11:55:32;17.98;;;5.63;;
41685;SDS011;27370;42.764;23.432;2024-02-28T11:57:58;10.80;;;4.90;;
41685;SDS011;27370;42.764;23.432;2024-02-28T12:00:23;9.45;;;4.10;;
41685;SDS011;27370;42.764;23.432;2024-02-28T12:02:49;8.13;;;4.15;;
41685;SDS011;27370;42.764;23.432;2024-02-28T12:05:14;8.07;;;3.70;;
41685;SDS011;27370;42.764;23.432;2024-02-28T12:07:41;10.38;;;4.82;;
41685;SDS011;27370;42.764;23.432;2024-02-28T12:10:06;13.63;;;4.47;;
41685;SDS011;27370;42.764;23.432;2024-02-28T12:12:33;11.23;;;5.07;;
41685;SDS011;27370;42.764;23.432;2024-02-28T12:14:59;9.48;;;4.90;;
41685;SDS011;27370;42.764;23.432;2024-02-28T12:17:25;15.30;;;6.30;;
41685;SDS011;27370;42.764;23.432;2024-02-28T12:19:52;14.85;;;7.10;;
41685;SDS011;27370;42.764;23.432;2024-02-28T12:22:18;14.65;;;4.85;;
41685;SDS011;27370;42.764;23.432;2024-02-28T12:24:43;16.88;;;7.90;;
41685;SDS011;27370;42.764;23.432;2024-02-28T12:27:09;7.95;;;4.18;;
41685;SDS011;27370;42.764;23.432;2024-02-28T12:29:34;7.47;;;4.20;;
41685;SDS011;27370;42.764;23.432;2024-02-28T12:32:00;8.23;;;4.95;;
41685;SDS011;27370;42.764;23.432;2024-02-28T12:34:25;6.57;;;4.35;;
41685;SDS011;27370;42.764;23.432;2024-02-28T12:36:51;11.10;;;4.47;;
41685;SDS011;27370;42.764;23.432;2024-02-28T12:39:17;19.15;;;6.65;;
41685;SDS011;27370;42.764;23.432;2024-02-28T12:41:42;9.77;;;4.10;;
41685;SDS011;27370;42.764;23.432;2024-02-28T12:44:08;6.93;;;4.10;;
41685;SDS011;27370;42.764;23.432;2024-02-28T12:46:35;6.25;;;4.38;;
41685;SDS011;27370;42.764;23.432;2024-02-28T12:49:00;12.23;;;4.72;;
41685;SDS011;27370;42.764;23.432;2024-02-28T12:51:39;5.95;;;3.95;;
41685;SDS011;27370;42.764;23.432;2024-02-28T12:54:06;8.00;;;3.92;;
41685;SDS011;27370;42.764;23.432;2024-02-28T12:56:33;4.95;;;4.43;;
41685;SDS011;27370;42.764;23.432;2024-02-28T12:58:59;8.73;;;4.30;;
41685;SDS011;27370;42.764;23.432;2024-02-28T13:01:25;12.10;;;4.13;;
41685;SDS011;27370;42.764;23.432;2024-02-28T13:03:51;7.32;;;3.90;;
41685;SDS011;27370;42.764;23.432;2024-02-28T13:06:17;7.80;;;4.25;;
41685;SDS011;27370;42.764;23.432;2024-02-28T13:08:43;9.55;;;4.50;;
41685;SDS011;27370;42.764;23.432;2024-02-28T13:11:09;6.93;;;3.65;;
41685;SDS011;27370;42.764;23.432;2024-02-28T13:13:35;11.77;;;3.78;;
41685;SDS011;27370;42.764;23.432;2024-02-28T13:16:00;11.73;;;4.65;;
41685;SDS011;27370;42.764;23.432;2024-02-28T13:18:26;6.97;;;3.75;;
41685;SDS011;27370;42.764;23.432;2024-02-28T13:20:51;8.73;;;3.67;;
41685;SDS011;27370;42.764;23.432;2024-02-28T13:23:17;8.30;;;4.20;;
41685;SDS011;27370;42.764;23.432;2024-02-28T13:25:43;6.97;;;4.18;;
41685;SDS011;27370;42.764;23.432;2024-02-28T13:28:10;7.68;;;3.78;;
41685;SDS011;27370;42.764;23.432;2024-02-28T13:30:35;6.15;;;3.65;;
41685;SDS011;27370;42.764;23.432;2024-02-28T13:33:02;5.68;;;3.78;;
41685;SDS011;27370;42.764;23.432;2024-02-28T13:35:29;6.95;;;3.88;;
41685;SDS011;27370;42.764;23.432;2024-02-28T13:37:55;10.75;;;3.47;;
41685;SDS011;27370;42.764;23.432;2024-02-28T13:40:25;8.07;;;3.40;;
41685;SDS011;27370;42.764;23.432;2024-02-28T13:42:51;5.45;;;3.63;;
41685;SDS011;27370;42.764;23.432;2024-02-28T13:45:16;6.25;;;3.42;;
41685;SDS011;27370;42.764;23.432;2024-02-28T13:47:42;8.95;;;4.10;;
41685;SDS011;27370;42.764;23.432;2024-02-28T13:50:08;6.28;;;3.20;;
41685;SDS011;27370;42.764;23.432;2024-02-28T13:52:35;8.68;;;2.95;;
41685;SDS011;27370;42.764;23.432;2024-02-28T13:55:00;7.53;;;3.67;;
41685;SDS011;27370;42.764;23.432;2024-02-28T13:57:26;6.28;;;3.38;;
41685;SDS011;27370;42.764;23.432;2024-02-28T13:59:51;6.03;;;3.95;;
41685;SDS011;27370;42.764;23.432;2024-02-28T14:02:20;5.93;;;3.08;;
41685;SDS011;27370;42.764;23.432;2024-02-28T14:04:46;9.35;;;3.25;;
41685;SDS011;27370;42.764;23.432;2024-02-28T14:07:14;10.43;;;4.60;;
41685;SDS011;27370;42.764;23.432;2024-02-28T14:09:41;5.57;;;3.22;;